• Join FlightAware (Why Join?)
  • Login
  • US Flag 
10:30AM EDT


 

Airport Tracker/Info


-or-


 

Live Flight TrackerFlight Track Log ✈ EJA962 ✈ 19-May-2013 ✈ KMDW - KICT

Flight Track Log - Related Links

Times and Time Zones

All times are in EDT time to prevent confusion due to time zone crossing. See the EJA962 flight status page for this flight to view local times or setup timezone preferences in your user account.

Time Position Orientation Groundspeed Altitude Reporting Facility
EDT Latitude Longitude Course Direction KTS MPH feet Rate Location/Type
08:57PM 41.7500 -87.7000 196° South 200 230 3,300  Level Chicago TRACON
08:59PM 41.6181 -87.7728 202° Southwest 270 311 8,100 2,340 Climbing Chicago Center
09:00PM 41.5617 -87.8419 223° Southwest 277 319 10,700 2,040 Climbing Chicago Center
09:01PM 41.5031 -87.9136 222° Southwest 284 327 12,300 1,260 Climbing Chicago Center
09:02PM 41.1379 -88.1025 196° South  Level FlightAware Approximate
09:02PM 41.4331 -87.9956 221° Southwest 330 380 13,300  Level Chicago Center
09:03PM 41.3536 -88.0897 222° Southwest 354 407 14,700 1,380 Climbing Chicago Center
09:04PM 41.2761 -88.1786 221° Southwest 364 419 16,200 1,560 Climbing Chicago Center
09:05PM 41.1833 -88.2425 207° Southwest 379 436 17,900 1,680 Climbing Chicago Center
09:06PM 41.0908 -88.3050 207° Southwest 374 430 19,700 1,500 Climbing Chicago Center
09:07PM 40.9958 -88.3669 206° Southwest 380 437 21,000 1,260 Climbing Chicago Center
09:08PM 40.8975 -88.4325 207° Southwest 394 453 22,300 1,440 Climbing Chicago Center
09:09PM 40.7764 -88.5136 207° Southwest 409 471 24,000 1,440 Climbing Chicago Center
09:10PM 40.6736 -88.5817 207° Southwest 415 478 25,300 1,260 Climbing Chicago Center
09:11PM 40.5669 -88.6508 206° Southwest 426 490 26,700 1,140 Climbing Chicago Center
09:12PM 40.4675 -88.7144 206° Southwest 432 497 27,700 1,080 Climbing Chicago Center
09:13PM 40.3569 -88.7864 206° Southwest 439 505 29,000 1,260 Climbing Chicago Center
09:14PM 40.2450 -88.8608 207° Southwest 446 513 30,400 1,560 Climbing Chicago Center
09:15PM 40.1092 -88.9494 207° Southwest 452 520 32,300 1,620 Climbing Chicago Center
09:16PM 40.0150 -89.0083 206° Southwest 454 522 33,600 840 Climbing Kansas City Center
09:17PM 39.8978 -89.0753 204° Southwest 457 526 34,000 540 Climbing Kansas City Center
09:18PM 39.7719 -89.1406 202° Southwest 477 549 34,800 1,260 Climbing Kansas City Center
09:19PM 39.6500 -89.2039 202° Southwest 475 547 36,600 1,680 Climbing Kansas City Center
09:20PM 39.5275 -89.2678 202° Southwest 468 539 38,300 1,740 Climbing Kansas City Center
09:21PM 39.4106 -89.3267 201° Southwest 456 525 40,200 1,860 Climbing Kansas City Center
09:22PM 39.2983 -89.3853 202° Southwest 440 506 42,100 1,140 Climbing Kansas City Center
09:23PM 39.1881 -89.4428 202° Southwest 430 495 42,600 420 Climbing Kansas City Center
09:24PM 39.0489 -89.5153 202° Southwest 440 506 43,000 180 Climbing Kansas City Center
09:25PM 38.9294 -89.5758 202° Southwest 459 528 43,000  Level Kansas City Center
09:26PM 38.8067 -89.6383 202° Southwest 473 544 43,000  Level Kansas City Center
09:27PM 38.6811 -89.7003 201° Southwest 489 563 43,000  Level Kansas City Center
09:28PM 38.5569 -89.7633 202° Southwest 482 555 43,000  Level Kansas City Center
09:29PM 38.4328 -89.8253 201° Southwest 477 549 43,000  Level Kansas City Center
09:30PM 38.3075 -89.8878 201° Southwest 479 551 43,000  Level Kansas City Center
09:31PM 38.1847 -89.9500 202° Southwest 475 547 43,000  Level Kansas City Center
09:32PM 38.0478 -90.0172 201° Southwest 481 554 43,000  Level Kansas City Center
09:33PM 37.9353 -90.0719 201° Southwest 477 549 43,000  Level Kansas City Center
09:34PM 37.8131 -90.1353 202° Southwest 474 545 43,000  Level Kansas City Center
09:35PM 37.6906 -90.1967 202° Southwest 473 544 43,000  Level Kansas City Center
09:36PM 37.5664 -90.2586 202° Southwest 476 548 43,000  Level Kansas City Center
09:37PM 37.4428 -90.3167 200° South 476 548 43,000  Level Kansas City Center
09:38PM 37.3000 -90.3875 202° Southwest 474 545 43,000  Level Kansas City Center
09:39PM 37.1758 -90.4475 201° Southwest 476 548 43,000  Level Kansas City Center
09:40PM 37.0525 -90.5061 201° Southwest 476 548 43,000  Level Kansas City Center
09:41PM 36.9319 -90.5642 201° Southwest 468 539 43,000  Level Kansas City Center
09:42PM 36.8044 -90.6289 202° Southwest 475 547 43,000  Level Memphis Center
09:43PM 36.6772 -90.6881 200° South 480 552 43,000  Level Memphis Center
09:44PM 36.5542 -90.7469 201° Southwest 480 552 43,000  Level Memphis Center
09:45PM 36.4267 -90.8083 201° Southwest 480 552 43,000  Level Memphis Center
09:46PM 36.2994 -90.8669 200° South 485 558 43,000  Level Memphis Center
09:47PM 36.1822 -90.9433 208° Southwest 490 564 43,000  Level Memphis Center
09:48PM 36.1169 -91.0739 238° Southwest 463 533 43,000  Level Memphis Center
09:49PM 36.1181 -91.2256 271° West 414 476 43,000  Level Memphis Center
09:50PM 36.1108 -91.3744 267° West 424 488 43,000  Level Memphis Center
09:51PM 36.0803 -91.5256 256° West 436 502 43,000  Level Memphis Center
09:52PM 36.0433 -91.6739 253° West 447 514 43,000  Level Memphis Center
09:53PM 36.0083 -91.8222 254° West 454 522 43,000  Level Memphis Center
09:54PM 35.9669 -91.9728 251° West 454 522 43,000  Level Memphis Center
09:55PM 35.9397 -92.1208 257° West 459 528 43,000  Level Memphis Center
09:56PM 35.9000 -92.2714 252° West 454 522 43,000  Level Memphis Center
09:57PM 35.8664 -92.4164 254° West 454 522 43,000  Level Memphis Center
09:58PM 35.8286 -92.5642 253° West 454 522 43,000  Level Memphis Center
09:59PM 35.7925 -92.7089 253° West 454 522 43,000  Level Memphis Center
10:00PM 35.7542 -92.8589 253° West 454 522 43,000  Level Memphis Center
10:01PM 35.7197 -93.0061 254° West 454 522 43,000  Level Memphis Center
10:02PM 35.6811 -93.1556 252° West 454 522 43,000  Level Memphis Center
10:03PM 35.6417 -93.3203 254° West 454 522 43,000  Level Memphis Center
10:04PM 35.6008 -93.4592 250° West 454 522 43,000  Level Memphis Center
10:05PM 35.5639 -93.6058 253° West 454 522 43,000  Level Memphis Center
10:06PM 35.5244 -93.7525 252° West 454 522 43,000  Level Memphis Center
10:07PM 35.4892 -93.8936 253° West 447 514 43,000  Level Memphis Center
10:08PM 35.4542 -94.0272 252° West 434 499 43,000  Level Memphis Center
10:09PM 35.4167 -94.1633 251° West 424 488 43,000  Level Memphis Center
10:10PM 35.3789 -94.3017 252° West 424 488 43,000  Level Memphis Center
10:11PM 35.3308 -94.4367 246° West 430 495 43,000  Level Memphis Center
10:14PM 35.2294 -94.7272 247° West 454 522 43,000  Level Fort Worth Center
10:15PM 35.1742 -94.8789 246° West 454 522 43,000  Level Fort Worth Center
10:16PM 35.1250 -95.0225 247° West 459 528 43,000  Level Fort Worth Center
10:17PM 35.0753 -95.1633 247° West 459 528 43,000  Level Fort Worth Center
10:18PM 35.0256 -95.3017 246° West 459 528 43,000  Level Fort Worth Center
10:19PM 34.9756 -95.4397 246° West 459 528 43,000  Level Fort Worth Center
10:20PM 34.9256 -95.5775 246° West 459 528 43,000  Level Fort Worth Center
10:21PM 34.9069 -95.7222 261° West 454 522 43,000  Level Fort Worth Center
10:22PM 34.9689 -95.8528 300° West 414 476 43,000  Level Fort Worth Center
10:23PM 35.0372 -95.9808 303° West 422 486 43,000  Level Fort Worth Center
10:24PM 35.1117 -96.1142 304° West 445 512 43,000  Level Fort Worth Center
10:25PM 35.1819 -96.2450 303° West 463 533 43,000  Level Fort Worth Center
10:26PM 35.2539 -96.3814 303° West 473 544 43,000  Level Fort Worth Center
10:28PM 35.4339 -96.7031 305° West 477 549 43,000  Level Kansas City Center
10:29PM 35.5219 -96.8617 304° West 474 545 43,000  Level Kansas City Center
10:30PM 35.5981 -96.9903 306° West 472 543 43,000  Level Kansas City Center
10:31PM 35.6858 -97.1081 313° West 473 544 43,000  Level Kansas City Center
10:32PM 35.7714 -97.2253 312° West 468 539 43,000  Level Kansas City Center
10:33PM 35.8603 -97.3361 315° West 461 531 43,000 -180 Level Kansas City Center
10:34PM 35.9486 -97.4497 314° West 462 532 42,700 -1,140 Descending Kansas City Center
10:35PM 36.0500 -97.5503 321° Northwest 468 539 40,800 -1,920 Descending Kansas City Center
10:36PM 36.1628 -97.6269 331° Northwest 464 534 38,800 -2,220 Descending Kansas City Center
10:37PM 36.3128 -97.6928 341° North 475 547 36,300 -2,520 Descending Kansas City Center
10:38PM 36.4444 -97.7261 348° North 478 550 33,700 -2,760 Descending Kansas City Center
10:39PM 36.5794 -97.7200 North 504 580 30,700 -3,300 Descending Kansas City Center
10:40PM 36.7164 -97.6850 12° North 506 582 27,000 -3,600 Descending Kansas City Center
10:41PM 36.8489 -97.6497 12° North 493 567 23,500 -3,420 Descending Kansas City Center
10:42PM 36.9769 -97.6153 12° North 478 550 20,100 -3,180 Descending Kansas City Center
10:43PM 37.0992 -97.5822 12° North 460 529 17,100 -3,180 Descending Kansas City Center
10:44PM 37.1744 -97.5625 12° North 420 483 15,200 -2,760 Descending Kansas City Center
10:44PM 37.2117 -97.5544 10° North 425 489 14,300 -2,040 Descending Kansas City Center
10:45PM 37.2747 -97.5131 28° Northeast 376 433 13,200 -1,680 Descending Kansas City Center
10:45PM 37.3028 -97.4931 30° Northeast 375 432 12,600 -1,920 Descending Kansas City Center
10:46PM 37.3611 -97.4497 31° Northeast 346 398 11,300 -1,980 Descending Kansas City Center
10:46PM 37.3886 -97.4278 32° Northeast 362 417 10,600 -1,980 Descending Kansas City Center
10:47PM 37.4397 -97.3956 27° Northeast 318 366 9,300 -1,980 Descending Kansas City Center
10:47PM 37.4669 -97.3814 22° Northeast 314 361 8,600 -1,920 Descending Kansas City Center
10:48PM 37.5178 -97.3544 23° Northeast 290 334 7,400 -2,220 Descending Kansas City Center
10:48PM 37.5564 -97.3342 23° Northeast 292 336 6,400 -2,100 Descending Kansas City Center
10:49PM 37.5961 -97.3183 18° North 278 320 5,300 -1,980 Descending Kansas City Center
10:49PM 37.6297 -97.3044 18° North 280 322 4,400 -1,800 Descending Kansas City Center
10:50PM 37.6689 -97.2886 18° North 276 318 3,500 -1,380 Descending Kansas City Center
10:50PM 37.7000 -97.3003 343° North 263 303 3,000 -660 Descending Kansas City Center
10:51PM 37.7108 -97.3297 295° West 209 241 2,900 -540 Descending Kansas City Center
10:52PM 37.7158 -97.3617 281° West 187 215 2,500 -600 Descending Kansas City Center
10:52PM 37.7097 -97.3828 250° West 133 153 2,300 -540 Descending Kansas City Center
10:53PM 37.6953 -97.4019 226° Southwest 157 181 2,000 -600 Descending Kansas City Center
10:53PM 37.6767 -97.4117 202° Southwest 128 147 1,700 -720 Descending Kansas City Center
10:54PM 37.6606 -97.4178 197° South 142 163 1,300 -780 Descending Kansas City Center